Time;durP1;ratioP1;P1;durP2;ratioP2;P2;SDS_P1;SDS_P2;PMS_P1;PMS_P2;Temp;Humidity;BMP_temperature;BMP_pressure;BME280_temperature;BME280_humidity;BME280_pressure;Samples;Min_cycle;Max_cycle;Signal;HPM_P1;HPM_P2
2022/04/14 05:17:28;;;;;;;;;9.25;9.00;;;;;17.97;55.63;101802.84;4978885;27;45551;-70
2022/04/14 05:19:54;;;;;;;;;10.50;8.00;;;;;18.15;55.90;101812.34;4971023;28;45433;-70
2022/04/14 05:22:19;;;;;;;;;10.00;9.00;;;;;18.43;55.67;101813.13;4967757;28;46451;-70
2022/04/14 05:24:44;;;;;;;;;11.00;9.50;;;;;18.79;55.25;101815.09;4983634;28;46549;-70
2022/04/14 05:27:09;;;;;;;;;10.25;10.25;;;;;19.20;54.37;101811.25;4969036;28;54832;-70
2022/04/14 05:29:36;;;;;;;;;9.50;9.50;;;;;19.63;53.80;101811.72;4963110;28;56522;-71
2022/04/14 05:32:01;;;;;;;;;8.75;8.75;;;;;20.05;52.94;101810.38;4967910;28;47006;-70
2022/04/14 05:34:27;;;;;;;;;9.00;9.00;;;;;20.43;51.99;101813.75;4964020;28;45518;-71
2022/04/14 05:36:52;;;;;;;;;7.50;7.00;;;;;20.79;51.32;101817.16;4964390;28;45474;-70
2022/04/14 05:39:17;;;;;;;;;8.75;8.25;;;;;21.13;50.73;101809.03;4972894;28;45400;-67
2022/04/14 05:41:43;;;;;;;;;15.75;14.25;;;;;21.42;49.73;101813.03;4994383;28;45423;-70
2022/04/14 05:44:08;;;;;;;;;10.75;8.75;;;;;21.70;49.10;101824.19;4963106;28;45582;-70
2022/04/14 05:46:33;;;;;;;;;9.50;9.50;;;;;21.92;48.68;101817.88;4969221;28;53688;-71
2022/04/14 05:48:59;;;;;;;;;9.25;9.25;;;;;22.14;48.89;101828.69;4961512;28;45819;-69
2022/04/14 05:51:24;;;;;;;;;11.25;10.00;;;;;22.36;48.20;101830.34;4969002;28;52961;-69
2022/04/14 05:53:51;;;;;;;;;11.00;10.50;;;;;22.56;47.81;101830.47;4955068;28;45383;-70
2022/04/14 05:56:17;;;;;;;;;10.00;10.00;;;;;22.73;47.49;101839.81;4976875;27;47311;-70
2022/04/14 05:58:43;;;;;;;;;9.50;9.50;;;;;22.89;47.09;101836.59;4963695;28;45668;-70
2022/04/14 06:01:08;;;;;;;;;10.00;10.00;;;;;23.06;46.90;101826.94;5004624;28;45362;-70
2022/04/14 06:03:34;;;;;;;;;13.00;11.75;;;;;23.24;46.53;101831.66;4961169;28;45570;-71
2022/04/14 06:05:59;;;;;;;;;9.00;9.00;;;;;23.41;46.28;101824.72;4957149;28;45541;-70
2022/04/14 06:08:24;;;;;;;;;12.25;10.50;;;;;23.54;45.71;101829.88;4959246;28;45463;-71
2022/04/14 06:10:50;;;;;;;;;11.00;9.67;;;;;23.69;45.84;101833.88;4965510;28;45630;-71
2022/04/14 06:13:15;;;;;;;;;11.33;10.00;;;;;23.81;45.37;101831.88;5020034;28;45607;-71
2022/04/14 06:15:40;;;;;;;;;10.00;10.00;;;;;23.94;45.34;101833.41;4965789;28;46225;-71
2022/04/14 06:18:06;;;;;;;;;11.33;11.33;;;;;24.05;45.01;101830.56;4962088;28;45806;-70
2022/04/14 06:20:31;;;;;;;;;7.67;7.67;;;;;24.15;44.78;101833.25;4996242;28;45459;-70
2022/04/14 06:22:58;;;;;;;;;7.33;7.33;;;;;24.26;44.43;101839.50;5009984;28;45769;-71
2022/04/14 06:25:25;;;;;;;;;7.67;7.67;;;;;24.36;44.30;101836.78;4968468;27;47353;-70
2022/04/14 06:27:52;;;;;;;;;10.00;8.00;;;;;24.41;44.12;101831.75;4967070;28;46439;-70
2022/04/14 06:30:18;;;;;;;;;8.67;8.67;;;;;24.44;43.86;101837.75;4951212;28;45603;-71
2022/04/14 06:33:05;;;;;;;;;9.33;8.33;;;;;24.54;43.98;101834.13;4969830;28;45457;-71
2022/04/14 06:35:31;;;;;;;;;9.00;9.00;;;;;24.55;44.06;101828.56;4948809;28;45457;-70
2022/04/14 06:37:57;;;;;;;;;8.00;6.00;;;;;24.65;43.93;101841.25;4947456;28;45606;-71
2022/04/14 06:40:23;;;;;;;;;10.67;8.67;;;;;24.69;43.97;101839.94;4947456;28;45566;-70
2022/04/14 06:42:49;;;;;;;;;8.00;8.00;;;;;24.76;43.62;101846.47;4956898;28;45551;-70
2022/04/14 06:45:14;;;;;;;;;8.00;8.00;;;;;24.78;43.47;101846.31;4953149;28;46482;-70
2022/04/14 06:47:39;;;;;;;;;8.00;8.00;;;;;24.79;43.63;101846.19;4948608;28;51220;-70
2022/04/14 06:50:06;;;;;;;;;8.00;7.67;;;;;24.84;43.48;101845.75;4950314;28;45520;-68
2022/04/14 06:52:32;;;;;;;;;9.33;9.00;;;;;24.88;42.81;101832.75;4953613;28;46471;-68
2022/04/14 06:54:58;;;;;;;;;10.67;9.00;;;;;24.90;42.61;101841.56;4980892;28;46189;-68
2022/04/14 06:57:24;;;;;;;;;12.00;11.00;;;;;24.92;42.31;101844.97;4946787;28;45580;-68
2022/04/14 06:59:50;;;;;;;;;9.33;9.00;;;;;24.91;42.19;101854.13;4950188;28;45414;-68
2022/04/14 07:02:15;;;;;;;;;10.00;10.00;;;;;24.91;42.19;101849.56;4986080;28;45539;-68
2022/04/14 07:04:40;;;;;;;;;11.00;11.00;;;;;24.92;42.01;101847.69;4952430;28;45466;-67
2022/04/14 07:07:06;;;;;;;;;10.33;10.33;;;;;24.90;41.94;101847.88;4961235;28;45776;-69
2022/04/14 07:09:34;;;;;;;;;10.33;8.33;;;;;24.88;42.16;101849.88;4953233;28;45573;-70
2022/04/14 07:12:03;;;;;;;;;9.67;9.33;;;;;24.86;41.68;101857.31;4963792;28;45492;-69
2022/04/14 07:14:30;;;;;;;;;10.67;9.00;;;;;24.84;41.75;101865.59;4970603;28;45614;-70
2022/04/14 07:16:57;;;;;;;;;10.00;10.00;;;;;24.88;42.07;101878.91;4948129;28;45554;-70
2022/04/14 07:19:22;;;;;;;;;13.00;10.00;;;;;24.81;41.45;101871.31;4948982;28;45556;-70
2022/04/14 07:21:47;;;;;;;;;11.00;10.00;;;;;24.83;42.19;101874.78;4951428;28;45462;-70
2022/04/14 07:24:13;;;;;;;;;9.33;9.33;;;;;24.81;41.70;101874.00;4953540;28;46267;-70
2022/04/14 07:26:39;;;;;;;;;13.67;10.33;;;;;24.82;41.75;101872.16;4954884;28;45791;-70
2022/04/14 07:29:04;;;;;;;;;9.67;9.00;;;;;24.80;41.65;101882.34;4948761;28;45517;-70
2022/04/14 07:31:32;;;;;;;;;12.00;11.33;;;;;24.81;41.68;101878.59;4950264;28;45599;-70
2022/04/14 07:33:58;;;;;;;;;14.00;10.33;;;;;24.83;41.62;101882.91;4983181;28;46155;-70
2022/04/14 07:36:25;;;;;;;;;12.33;10.00;;;;;24.84;41.61;101878.31;4947413;28;45779;-70
2022/04/14 07:38:50;;;;;;;;;11.33;11.33;;;;;24.84;41.23;101881.91;4965572;28;45728;-70
2022/04/14 07:41:15;;;;;;;;;13.67;10.67;;;;;24.84;41.64;101881.03;4958124;28;45665;-71
2022/04/14 07:43:41;;;;;;;;;11.67;10.33;;;;;24.86;41.07;101882.59;4947606;28;46213;-70
2022/04/14 07:46:06;;;;;;;;;14.50;13.00;;;;;24.92;41.36;101892.00;4957828;28;45482;-71
2022/04/14 07:48:32;;;;;;;;;11.00;11.00;;;;;24.91;41.29;101890.31;4950068;28;45534;-71
2022/04/14 07:50:59;;;;;;;;;14.33;13.67;;;;;24.87;41.31;101886.19;4941712;28;46009;-71
2022/04/14 07:53:25;;;;;;;;;15.00;15.00;;;;;24.85;41.42;101885.50;4948898;28;46213;-72
2022/04/14 07:55:50;;;;;;;;;16.67;12.33;;;;;24.85;41.57;101882.78;4944127;28;49846;-74
2022/04/14 07:58:15;;;;;;;;;15.00;12.67;;;;;24.86;41.36;101890.75;4945288;28;46795;-73
2022/04/14 08:00:41;;;;;;;;;13.00;12.00;;;;;24.86;41.61;101895.34;4948689;28;45835;-73
2022/04/14 08:03:07;;;;;;;;;12.00;12.00;;;;;24.92;41.55;101896.56;4943904;28;46446;-74
2022/04/14 08:05:38;;;;;;;;;12.00;12.00;;;;;25.03;41.79;101909.97;4944010;28;46233;-73
2022/04/14 08:08:06;;;;;;;;;10.00;10.00;;;;;25.02;41.35;101896.53;4942685;28;49574;-74
2022/04/14 08:10:32;;;;;;;;;13.67;12.33;;;;;25.08;41.81;101899.50;4960847;28;46535;-73
2022/04/14 08:12:57;;;;;;;;;11.67;11.33;;;;;25.11;41.46;101890.19;4987742;28;45414;-74
2022/04/14 08:15:23;;;;;;;;;12.67;12.67;;;;;25.17;41.24;101897.75;4967481;28;45474;-73
2022/04/14 08:17:49;;;;;;;;;12.33;10.67;;;;;25.23;41.18;101905.31;4979636;28;45515;-73
2022/04/14 08:20:16;;;;;;;;;9.00;9.00;;;;;25.31;41.91;101899.09;4978265;28;45509;-73
2022/04/14 08:22:55;;;;;;;;;10.67;9.33;;;;;25.38;41.82;101908.34;4936319;28;53777;-73
2022/04/14 08:25:24;;;;;;;;;17.33;14.00;;;;;25.40;41.86;101905.47;4963087;28;45451;-72
2022/04/14 08:27:50;;;;;;;;;13.00;13.00;;;;;25.41;41.31;101896.31;4952075;28;45489;-72
2022/04/14 08:30:17;;;;;;;;;11.33;11.33;;;;;25.46;42.07;101893.97;4953667;28;45588;-69
2022/04/14 08:32:44;;;;;;;;;13.33;13.00;;;;;25.50;41.62;101898.09;4947992;28;46333;-77
2022/04/14 08:35:10;;;;;;;;;12.00;12.00;;;;;25.57;41.78;101894.78;4947493;28;45768;-74
2022/04/14 08:37:36;;;;;;;;;12.00;11.33;;;;;25.60;41.30;101900.78;4947636;28;45598;-74
2022/04/14 08:40:05;;;;;;;;;12.67;11.00;;;;;25.64;41.39;101898.63;4948037;28;45432;-75
2022/04/14 08:42:39;;;;;;;;;11.33;11.33;;;;;25.69;41.57;101907.16;4941657;28;47665;-76
2022/04/14 08:45:08;;;;;;;;;12.33;10.33;;;;;25.72;41.42;101901.41;4948177;28;46865;-76
2022/04/14 08:47:35;;;;;;;;;12.67;11.67;;;;;25.74;41.39;101885.78;4948932;28;45770;-75
2022/04/14 08:50:03;;;;;;;;;13.67;12.00;;;;;25.79;41.51;101893.50;4946416;28;45723;-76
2022/04/14 08:52:28;;;;;;;;;12.33;11.00;;;;;25.82;41.54;101886.88;4950556;28;46194;-75
2022/04/14 08:54:55;;;;;;;;;20.67;19.33;;;;;25.86;40.80;101894.56;4960343;28;45492;-73
2022/04/14 08:57:21;;;;;;;;;18.67;18.00;;;;;25.87;40.35;101893.53;4948471;28;45570;-74
2022/04/14 08:59:49;;;;;;;;;15.33;15.33;;;;;25.89;40.42;101890.69;4949974;28;45468;-74
2022/04/14 09:02:19;;;;;;;;;18.33;18.33;;;;;25.88;39.94;101892.53;4946772;28;46101;-72
2022/04/14 09:04:45;;;;;;;;;16.67;14.00;;;;;25.87;39.84;101890.81;4946894;28;45537;-72
2022/04/14 09:07:11;;;;;;;;;16.33;14.67;;;;;25.82;39.66;101886.88;4948581;28;45628;-74
2022/04/14 09:09:37;;;;;;;;;16.00;15.67;;;;;25.77;40.01;101888.22;4947169;28;46193;-74
2022/04/14 09:12:03;;;;;;;;;14.33;13.67;;;;;25.74;40.13;101896.66;4947396;28;45649;-75
2022/04/14 09:14:34;;;;;;;;;18.00;16.33;;;;;25.75;39.91;101905.69;4948626;28;45495;-75
2022/04/14 09:17:01;;;;;;;;;18.67;18.00;;;;;25.74;39.94;101903.97;4941639;28;45553;-73
2022/04/14 09:19:30;;;;;;;;;16.67;15.00;;;;;25.71;39.82;101899.69;4947349;28;45400;-74
2022/04/14 09:22:09;;;;;;;;;17.00;17.00;;;;;25.70;39.72;101900.69;4949084;28;46267;-74
2022/04/14 09:24:44;;;;;;;;;15.00;15.00;;;;;25.70;40.05;101900.69;4949040;28;45474;-74
2022/04/14 09:27:22;;;;;;;;;18.33;15.33;;;;;25.69;39.93;101895.41;4948503;28;45583;-74
2022/04/14 09:29:48;;;;;;;;;18.33;15.33;;;;;25.68;39.92;101893.72;4962098;28;45447;-75
2022/04/14 09:32:32;;;;;;;;;14.67;14.67;;;;;25.64;39.93;101885.88;4939780;28;46118;-75
2022/04/14 09:35:00;;;;;;;;;18.00;16.33;;;;;25.65;39.81;101895.75;4944704;28;45327;-73
2022/04/14 09:37:26;;;;;;;;;15.67;15.67;;;;;25.65;39.71;101893.03;4946716;28;45468;-74
2022/04/14 09:40:01;;;;;;;;;16.00;14.00;;;;;25.66;39.92;101885.72;4944382;28;45648;-74
2022/04/14 09:42:31;;;;;;;;;15.67;15.67;;;;;25.64;39.65;101891.31;4949837;28;46503;-74
2022/04/14 09:45:16;;;;;;;;;12.33;11.67;;;;;25.64;39.83;101883.16;4947352;28;45447;-74
2022/04/14 09:47:41;;;;;;;;;19.00;15.33;;;;;25.64;39.49;101896.75;4943334;28;45526;-71
2022/04/14 09:50:26;;;;;;;;;13.67;13.67;;;;;25.64;39.35;101895.91;4946925;28;47061;-70
2022/04/14 09:53:12;;;;;;;;;17.00;16.00;;;;;25.64;39.73;101887.75;4944931;28;45458;-72
2022/04/14 09:55:42;;;;;;;;;15.67;14.00;;;;;25.63;39.83;101892.31;4941333;28;45480;-72
2022/04/14 09:58:07;;;;;;;;;13.67;13.67;;;;;25.63;39.48;101895.03;4949090;28;45392;-72
2022/04/14 10:00:38;;;;;;;;;14.33;14.33;;;;;25.64;39.79;101898.63;4973674;28;45452;-72
2022/04/14 10:03:11;;;;;;;;;15.33;15.33;;;;;25.65;39.68;101895.75;4948213;28;45465;-72
2022/04/14 10:05:38;;;;;;;;;14.67;13.33;;;;;25.67;39.36;101897.44;4950519;28;45520;-72
2022/04/14 10:08:07;;;;;;;;;11.67;11.67;;;;;25.69;39.58;101892.69;4952051;28;45447;-72
2022/04/14 10:10:34;;;;;;;;;14.33;14.00;;;;;25.70;39.58;101894.44;4956230;28;45610;-71
2022/04/14 10:13:07;;;;;;;;;15.33;15.33;;;;;25.69;39.66;101888.13;4947951;28;45581;-72
2022/04/14 10:15:48;;;;;;;;;16.00;15.75;;;;;25.72;39.74;101890.53;4954182;28;45871;-71
2022/04/14 10:18:16;;;;;;;;;18.75;16.25;;;;;25.72;39.64;101889.69;4953690;28;45325;-71
2022/04/14 10:20:44;;;;;;;;;18.33;18.00;;;;;25.71;39.27;101887.97;4946296;28;45569;-71
2022/04/14 10:23:11;;;;;;;;;18.00;17.00;;;;;25.71;39.69;101890.69;4950597;28;45589;-71
2022/04/14 10:25:37;;;;;;;;;19.67;18.00;;;;;25.72;39.75;101879.66;4947242;28;45445;-71
2022/04/14 10:28:06;;;;;;;;;17.33;15.67;;;;;25.74;39.50;101879.50;4941193;28;45839;-71
2022/04/14 10:30:31;;;;;;;;;16.67;16.33;;;;;25.75;39.80;101878.50;4948861;28;45502;-71
2022/04/14 10:32:57;;;;;;;;;17.33;17.00;;;;;25.74;39.78;101876.75;4943572;28;46319;-71
2022/04/14 10:35:25;;;;;;;;;14.00;14.00;;;;;25.73;39.39;101872.34;4953217;28;45998;-71
2022/04/14 10:38:05;;;;;;;;;24.00;18.33;;;;;25.75;39.58;101873.91;4943666;28;45472;-71
2022/04/14 10:40:33;;;;;;;;;17.25;16.75;;;;;25.75;39.73;101876.63;4939226;28;45380;-71
2022/04/14 10:42:59;;;;;;;;;18.67;17.00;;;;;25.78;39.68;101867.28;4950282;28;45395;-71
2022/04/14 10:45:25;;;;;;;;;18.67;15.67;;;;;25.79;39.93;101869.03;4952707;28;45506;-71
2022/04/14 10:47:50;;;;;;;;;19.50;17.75;;;;;25.79;39.88;101860.88;4953080;28;45549;-71
2022/04/14 10:50:23;;;;;;;;;16.00;16.00;;;;;25.79;39.74;101860.88;4942040;28;45373;-71
2022/04/14 10:53:08;;;;;;;;;18.00;17.75;;;;;25.78;39.72;101867.28;4938303;28;46427;-71
2022/04/14 10:55:44;;;;;;;;;19.33;16.33;;;;;25.76;39.72;101870.16;4942091;28;45507;-70
2022/04/14 10:58:28;;;;;;;;;15.75;14.75;;;;;25.76;39.71;101867.44;4963311;28;45574;-71
2022/04/14 11:00:54;;;;;;;;;18.00;16.00;;;;;25.74;39.79;101857.72;4945341;28;45447;-70
2022/04/14 11:03:20;;;;;;;;;17.33;16.00;;;;;25.73;39.82;101866.91;4951399;28;46174;-71
2022/04/14 11:05:50;;;;;;;;;20.25;17.50;;;;;25.77;39.37;101860.16;4949144;28;45562;-70
2022/04/14 11:08:32;;;;;;;;;18.00;18.00;;;;;25.79;39.45;101858.97;4949932;28;45797;-71
2022/04/14 11:11:14;;;;;;;;;19.00;17.00;;;;;25.82;39.53;101854.25;4949270;28;52695;-70
2022/04/14 11:13:52;;;;;;;;;18.67;17.33;;;;;25.80;39.57;101859.84;4946374;28;47164;-71
2022/04/14 11:16:39;;;;;;;;;19.25;16.75;;;;;25.81;39.39;101866.13;4947416;28;45459;-72
2022/04/14 11:19:25;;;;;;;;;17.33;14.33;;;;;25.82;40.09;101857.81;4982315;28;45499;-74
2022/04/14 11:22:07;;;;;;;;;17.00;13.33;;;;;25.87;39.86;101863.63;4949790;28;45637;-73
2022/04/14 11:24:43;;;;;;;;;15.67;15.67;;;;;25.92;39.69;101857.75;4961216;28;45435;-73
2022/04/14 11:27:13;;;;;;;;;13.67;13.33;;;;;25.98;40.08;101862.53;4947600;28;45874;-73
2022/04/14 11:29:43;;;;;;;;;17.00;16.00;;;;;26.06;39.74;101864.47;4949924;28;45588;-73
2022/04/14 11:32:09;;;;;;;;;12.67;12.67;;;;;26.14;40.13;101866.38;4964570;28;45603;-74
2022/04/14 11:34:35;;;;;;;;;14.67;14.67;;;;;26.20;40.04;101865.75;4944570;28;45479;-73
2022/04/14 11:37:01;;;;;;;;;14.67;13.00;;;;;26.27;39.70;101863.25;4950196;28;45384;-74
2022/04/14 11:39:28;;;;;;;;;14.67;14.67;;;;;26.31;39.56;101860.06;4956275;28;45525;-75
2022/04/14 11:42:02;;;;;;;;;18.00;16.00;;;;;26.38;39.68;101856.69;4949428;28;45522;-73
2022/04/14 11:44:31;;;;;;;;;14.67;14.67;;;;;26.45;40.18;101868.66;4942948;28;45553;-73
2022/04/14 11:46:59;;;;;;;;;15.33;15.33;;;;;26.51;39.86;101861.69;4942713;28;54517;-74
2022/04/14 11:49:29;;;;;;;;;14.00;12.67;;;;;26.57;39.63;101864.63;4944650;28;45396;-74
2022/04/14 11:52:00;;;;;;;;;13.33;13.33;;;;;26.63;40.14;101865.00;4951166;28;45381;-73
2022/04/14 11:54:28;;;;;;;;;13.33;13.33;;;;;26.70;39.78;101863.34;4938359;28;45685;-74
2022/04/14 11:56:58;;;;;;;;;14.00;13.33;;;;;26.77;39.52;101867.09;4947711;28;45410;-75
2022/04/14 11:59:32;;;;;;;;;16.00;13.00;;;;;26.81;39.29;101862.22;4946444;28;45349;-74
2022/04/14 12:02:03;;;;;;;;;15.00;12.33;;;;;26.86;39.71;101856.25;4947695;28;45575;-74
2022/04/14 12:04:40;;;;;;;;;11.00;11.00;;;;;26.92;39.57;101856.44;4938730;28;46573;-74
2022/04/14 12:07:07;;;;;;;;;11.33;11.33;;;;;26.97;39.40;101847.81;4947676;28;45530;-74
2022/04/14 12:09:33;;;;;;;;;13.00;13.00;;;;;27.00;39.28;101849.34;4953665;28;45684;-74
2022/04/14 12:12:30;;;;;;;;;12.33;12.33;;;;;27.03;39.97;101854.47;4945794;28;45456;-73
2022/04/14 12:14:55;;;;;;;;;15.33;12.67;;;;;27.09;39.98;101861.97;4957988;28;45540;-74
2022/04/14 12:17:22;;;;;;;;;12.67;12.67;;;;;27.13;39.98;101862.53;4958468;28;45458;-74
2022/04/14 12:19:53;;;;;;;;;11.33;11.33;;;;;27.14;39.37;101856.88;4963121;28;45517;-74
2022/04/14 12:22:19;;;;;;;;;13.33;11.33;;;;;27.18;39.37;101855.53;4940027;28;45570;-74
2022/04/14 12:24:52;;;;;;;;;14.33;11.67;;;;;27.18;39.57;101847.34;4948328;28;45557;-73
2022/04/14 12:27:24;;;;;;;;;13.00;13.00;;;;;27.17;39.95;101850.25;4959841;28;45650;-72
2022/04/14 12:30:04;;;;;;;;;12.00;11.00;;;;;27.21;39.50;101857.94;4947566;28;45443;-72
2022/04/14 12:32:30;;;;;;;;;11.33;11.00;;;;;27.15;39.89;101835.94;4948142;28;45368;-72
2022/04/14 12:34:56;;;;;;;;;12.00;12.00;;;;;27.17;40.07;101837.47;4947796;28;46362;-72
2022/04/14 12:37:22;;;;;;;;;12.00;12.00;;;;;27.20;39.47;101828.13;4942234;28;45382;-73
2022/04/14 12:39:57;;;;;;;;;11.00;11.00;;;;;27.28;40.17;101844.50;4950344;28;45699;-72
2022/04/14 12:42:29;;;;;;;;;15.33;12.00;;;;;27.29;39.86;101829.84;4945290;28;45681;-72
2022/04/14 12:45:01;;;;;;;;;12.00;12.00;;;;;27.31;40.16;101825.09;4945673;28;46041;-71
2022/04/14 12:47:29;;;;;;;;;11.00;11.00;;;;;27.36;39.59;101828.16;4945626;28;45566;-73
2022/04/14 12:49:58;;;;;;;;;9.67;8.67;;;;;27.42;39.78;101832.06;4947147;28;45577;-72
2022/04/14 12:52:26;;;;;;;;;9.33;9.33;;;;;27.41;39.86;101829.50;4935846;28;45701;-71
2022/04/14 12:54:52;;;;;;;;;10.67;10.00;;;;;27.44;39.44;101840.94;4938143;28;52151;-74
2022/04/14 12:57:23;;;;;;;;;9.00;9.00;;;;;27.47;40.27;101840.59;4948844;28;45440;-71
2022/04/14 13:00:03;;;;;;;;;11.67;11.67;;;;;27.53;40.26;101841.78;4938031;28;45637;-72
2022/04/14 13:02:29;;;;;;;;;10.33;10.00;;;;;27.51;39.97;101841.13;4941028;28;45588;-74
2022/04/14 13:05:12;;;;;;;;;11.00;10.33;;;;;27.54;39.60;101837.22;4940246;28;45433;-71
2022/04/14 13:07:52;;;;;;;;;9.00;9.00;;;;;27.53;40.57;101841.78;4959510;28;45513;-71
2022/04/14 13:10:28;;;;;;;;;9.67;9.67;;;;;27.55;39.87;101831.56;4984262;28;45392;-70
2022/04/14 13:12:54;;;;;;;;;18.67;16.67;;;;;27.52;38.13;101831.06;4944390;28;45662;-68
2022/04/14 13:15:20;;;;;;;;;14.00;12.00;;;;;27.53;37.68;101827.28;4944223;28;45547;-69
2022/04/14 13:17:45;;;;;;;;;12.00;11.00;;;;;27.52;37.27;101826.47;4935664;28;45550;-69
2022/04/14 13:20:37;;;;;;;;;11.67;11.67;;;;;27.54;36.92;101829.03;4957371;28;45414;-68
2022/04/14 13:23:08;;;;;;;;;13.33;12.00;;;;;27.52;36.68;101825.59;4988689;28;45661;-68
2022/04/14 13:25:36;;;;;;;;;12.33;11.67;;;;;27.46;36.96;101817.06;4947302;28;45515;-68
2022/04/14 13:28:01;;;;;;;;;14.00;12.00;;;;;27.45;37.19;101831.72;4947815;28;45722;-68
2022/04/14 13:30:27;;;;;;;;;10.67;10.67;;;;;27.38;37.19;101824.41;4949857;28;45529;-68
2022/04/14 13:32:52;;;;;;;;;13.67;9.67;;;;;27.31;36.27;101829.69;4946853;28;46755;-68
2022/04/14 13:35:18;;;;;;;;;10.67;10.33;;;;;27.23;35.34;101839.53;4942967;28;45939;-69
2022/04/14 13:37:43;;;;;;;;;12.00;11.00;;;;;27.16;35.69;101837.63;4947444;28;46998;-73
2022/04/14 13:40:10;;;;;;;;;10.33;10.33;;;;;27.10;35.90;101836.47;4944708;28;45487;-73
2022/04/14 13:42:36;;;;;;;;;9.00;9.00;;;;;27.08;36.60;101839.34;4951913;28;45614;-72
2022/04/14 13:45:02;;;;;;;;;10.67;9.00;;;;;27.08;36.19;101827.56;4947580;28;47184;-73
2022/04/14 13:47:28;;;;;;;;;14.33;10.00;;;;;27.12;36.17;101826.22;4945976;28;45658;-72
2022/04/14 13:49:53;;;;;;;;;11.00;8.67;;;;;27.15;35.87;101820.47;4938030;28;45898;-71
2022/04/14 13:52:19;;;;;;;;;10.67;10.67;;;;;27.17;36.10;101820.25;4952545;28;45518;-72
2022/04/14 13:54:45;;;;;;;;;11.00;9.00;;;;;27.19;36.49;101819.09;4950040;28;46777;-72
2022/04/14 13:57:10;;;;;;;;;14.00;11.00;;;;;27.22;37.00;101821.47;4950153;28;45440;-73
2022/04/14 13:59:35;;;;;;;;;12.00;12.00;;;;;27.26;36.90;101819.25;4949423;28;45765;-73
2022/04/14 14:02:02;;;;;;;;;9.00;9.00;;;;;27.31;36.51;101813.31;4948395;28;45846;-73
2022/04/14 14:04:27;;;;;;;;;13.67;10.33;;;;;27.35;36.93;101815.53;4939268;28;46238;-73
2022/04/14 14:06:53;;;;;;;;;9.33;9.33;;;;;27.43;37.21;101816.56;4946684;28;45497;-72
2022/04/14 14:09:18;;;;;;;;;8.00;8.00;;;;;27.48;37.37;101819.63;4951664;28;45726;-73
2022/04/14 14:11:43;;;;;;;;;6.67;6.67;;;;;27.53;36.98;101813.66;4949849;28;45502;-73
2022/04/14 14:14:09;;;;;;;;;8.00;7.33;;;;;27.57;37.40;101817.75;4946766;28;46656;-73
2022/04/14 14:16:35;;;;;;;;;10.00;9.33;;;;;27.60;37.34;101817.47;4948589;28;45519;-73
2022/04/14 14:19:01;;;;;;;;;12.00;10.00;;;;;27.60;37.38;101815.59;4948912;28;46450;-73
2022/04/14 14:21:26;;;;;;;;;11.00;8.00;;;;;27.61;37.16;101817.28;4950678;28;45527;-73
2022/04/14 14:23:52;;;;;;;;;8.00;8.00;;;;;27.61;37.49;101813.72;4940757;28;47153;-73
2022/04/14 14:26:17;;;;;;;;;9.00;8.00;;;;;27.62;37.36;101812.66;4991391;28;45592;-73
2022/04/14 14:28:43;;;;;;;;;8.33;7.67;;;;;27.63;37.91;101819.84;4939645;28;46974;-73
2022/04/14 14:31:10;;;;;;;;;7.00;7.00;;;;;27.64;37.64;101807.06;4947314;28;45660;-72
2022/04/14 14:33:38;;;;;;;;;9.00;7.33;;;;;27.65;38.10;101800.56;4940691;28;46666;-72
2022/04/14 14:36:04;;;;;;;;;9.00;9.00;;;;;27.64;37.69;101805.19;4949078;28;45465;-72
2022/04/14 14:38:29;;;;;;;;;11.00;8.00;;;;;27.65;38.32;101806.88;4949535;28;45349;-72
2022/04/14 14:40:59;;;;;;;;;9.33;9.00;;;;;27.67;37.54;101804.84;4937999;28;45346;-72
2022/04/14 14:43:24;;;;;;;;;7.00;7.00;;;;;27.66;38.24;101796.84;4949539;28;45450;-72
2022/04/14 14:45:49;;;;;;;;;9.67;7.00;;;;;27.69;38.00;101801.94;4955952;28;45356;-72
2022/04/14 14:48:15;;;;;;;;;7.67;7.00;;;;;27.71;38.34;101795.28;4956098;28;45430;-72
2022/04/14 14:50:41;;;;;;;;;7.00;7.00;;;;;27.73;38.37;101795.13;4966354;28;45809;-72
2022/04/14 14:53:07;;;;;;;;;10.00;8.33;;;;;27.74;38.26;101796.81;4940374;28;46034;-72
2022/04/14 14:55:34;;;;;;;;;8.00;8.00;;;;;27.74;37.96;101794.97;4951998;28;45759;-73
2022/04/14 15:00:43;;;;;;;;;6.00;6.00;;;;;27.77;37.84;101799.22;4942045;28;45539;-74
2022/04/14 15:03:09;;;;;;;;;6.33;6.33;;;;;27.78;37.64;101797.34;4944104;28;45890;-70
2022/04/14 15:05:34;;;;;;;;;6.00;6.00;;;;;27.76;37.97;101797.50;4957500;28;45999;-71
2022/04/14 15:08:00;;;;;;;;;7.00;7.00;;;;;27.76;37.91;101794.78;4953581;28;45444;-71
2022/04/14 15:10:25;;;;;;;;;7.00;7.00;;;;;27.76;38.18;101805.69;4963769;28;45675;-70
2022/04/14 15:12:53;;;;;;;;;6.67;6.67;;;;;27.77;38.41;101803.81;4950689;28;45586;-70
2022/04/14 15:15:26;;;;;;;;;6.33;6.33;;;;;27.76;38.17;101802.97;4952178;28;46323;-70
2022/04/14 15:17:53;;;;;;;;;7.67;6.33;;;;;27.75;38.43;101799.38;4969071;28;46999;-73
2022/04/14 15:20:18;;;;;;;;;6.00;6.00;;;;;27.75;37.81;101799.38;4944139;28;45620;-74
2022/04/14 15:22:44;;;;;;;;;7.00;6.00;;;;;27.73;38.05;101798.72;4944381;28;46269;-73
2022/04/14 15:25:09;;;;;;;;;8.00;8.00;;;;;27.71;38.44;101798.00;4944277;28;51854;-73
2022/04/14 15:27:35;;;;;;;;;6.33;6.00;;;;;27.71;37.87;101798.00;4948420;28;45405;-72
2022/04/14 15:30:01;;;;;;;;;8.00;8.00;;;;;27.70;37.96;101800.91;4977382;28;45680;-71
2022/04/14 15:32:26;;;;;;;;;6.00;6.00;;;;;27.70;37.93;101787.28;4950799;28;45541;-71
2022/04/14 15:34:51;;;;;;;;;5.67;5.67;;;;;27.72;38.28;101801.59;4950313;28;45618;-70
2022/04/14 15:37:16;;;;;;;;;7.00;7.00;;;;;27.72;38.57;101799.72;4947897;28;45678;-70
2022/04/14 15:39:42;;;;;;;;;8.00;8.00;;;;;27.72;38.81;101793.41;4951211;28;45733;-69
2022/04/14 15:42:07;;;;;;;;;5.00;5.00;;;;;27.72;38.26;101796.97;4949324;28;53856;-70
2022/04/14 15:44:33;;;;;;;;;7.33;6.33;;;;;27.72;38.00;101796.16;4959594;28;46421;-72
2022/04/14 15:46:58;;;;;;;;;7.33;6.00;;;;;27.73;38.80;101795.13;4949567;28;45568;-72
2022/04/14 15:49:23;;;;;;;;;8.00;6.67;;;;;27.73;38.78;101797.84;4956586;28;45708;-71
2022/04/14 15:51:49;;;;;;;;;6.33;6.00;;;;;27.72;38.29;101791.53;4946378;28;45714;-72
2022/04/14 15:54:15;;;;;;;;;9.67;8.00;;;;;27.71;38.88;101798.00;4947050;28;45411;-71
2022/04/14 15:56:40;;;;;;;;;5.67;5.67;;;;;27.70;38.80;101792.72;4946242;28;45469;-70
2022/04/14 15:59:06;;;;;;;;;8.67;7.00;;;;;27.67;35.99;101793.91;4950038;28;45465;-71
2022/04/14 16:01:31;;;;;;;;;6.00;6.00;;;;;27.66;36.27;101799.56;4949661;28;46173;-70
2022/04/14 16:03:56;;;;;;;;;7.00;5.67;;;;;27.62;35.57;101796.31;4938120;28;45762;-72
2022/04/14 16:06:22;;;;;;;;;6.00;6.00;;;;;27.58;36.18;101800.38;4953566;28;45379;-73
2022/04/14 16:08:47;;;;;;;;;7.67;7.33;;;;;27.51;36.42;101799.38;4954119;28;45817;-72
2022/04/14 16:13:56;;;;;;;;;6.67;5.67;;;;;27.38;36.18;101799.88;4947484;28;45414;-72
2022/04/14 16:16:22;;;;;;;;;3.33;3.33;;;;;27.35;35.22;101788.28;4946004;28;45811;-72
2022/04/14 16:18:48;;;;;;;;;6.67;5.33;;;;;27.34;35.92;101799.38;4961127;28;45526;-70
2022/04/14 16:21:13;;;;;;;;;6.00;6.00;;;;;27.26;35.13;101797.47;4951730;28;45466;-70
2022/04/14 16:23:38;;;;;;;;;10.67;7.33;;;;;27.19;35.38;101802.75;4947339;28;53945;-70
2022/04/14 16:26:04;;;;;;;;;8.67;7.67;;;;;27.13;36.09;101797.13;4951580;28;45313;-72
2022/04/14 16:28:29;;;;;;;;;6.67;6.67;;;;;27.06;35.66;101805.09;4949482;28;45451;-72
2022/04/14 16:30:54;;;;;;;;;9.00;7.00;;;;;26.98;35.69;101805.09;4950939;28;46140;-72
2022/04/14 16:33:20;;;;;;;;;6.00;6.00;;;;;26.87;35.94;101806.19;4951638;28;45405;-74
2022/04/14 16:35:45;;;;;;;;;9.67;8.33;;;;;26.78;36.68;101811.66;4946885;28;45686;-74
2022/04/14 16:38:10;;;;;;;;;4.67;4.67;;;;;26.70;36.84;101822.50;4951629;28;45575;-71
2022/04/14 16:40:36;;;;;;;;;5.33;5.33;;;;;26.69;36.29;101818.91;4959209;28;48278;-73